Time;durP1;ratioP1;P1;durP2;ratioP2;P2;SDS_P1;SDS_P2;PMS_P1;PMS_P2;Temp;Humidity;BMP_temperature;BMP_pressure;BME280_temperature;BME280_humidity;BME280_pressure;Samples;Min_cycle;Max_cycle;Signal;HPM_P1;HPM_P2
2023/04/16 00:00:18;;;;;;;;;;;;;;;16.58;68.67;101194.00;5090452;28;19908;-89
2023/04/16 00:02:44;;;;;;;;;;;;;;;16.60;68.44;101187.06;5091776;28;20357;-88
2023/04/16 00:05:09;;;;;;;;;;;;;;;16.57;68.65;101190.44;5091570;28;19961;-88
2023/04/16 00:07:35;;;;;;;;;;;;;;;16.58;68.65;101189.63;5091262;28;20006;-88
2023/04/16 00:10:00;;;;;;;;;;;;;;;16.56;68.90;101193.06;5091198;28;19965;-88
2023/04/16 00:12:26;;;;;;;;;;;;;;;16.57;68.69;101179.91;5090719;28;20010;-89
2023/04/16 00:14:51;;;;;;;;;;;;;;;16.54;68.83;101179.81;5073540;28;19908;-88
2023/04/16 00:17:17;;;;;;;;;;;;;;;16.55;68.67;101173.72;5073781;28;20369;-88
2023/04/16 00:19:42;;;;;;;;;;;;;;;16.52;68.77;101181.50;5076995;28;20556;-88
2023/04/16 00:22:08;;;;;;;;;;;;;;;16.53;68.82;101182.38;5090557;28;19936;-88
2023/04/16 00:24:33;;;;;;;;;;;;;;;16.55;68.74;101180.69;5073424;28;19908;-88
2023/04/16 00:26:58;;;;;;;;;;;;;;;16.53;69.05;101185.00;5090047;28;19951;-88
2023/04/16 00:29:26;;;;;;;;;;;;;;;16.52;68.99;101175.31;5089916;28;19962;-88
2023/04/16 00:31:51;;;;;;;;;;;;;;;16.53;68.79;101180.66;5073371;28;20369;-88
2023/04/16 00:34:17;;;;;;;;;;;;;;;16.52;69.04;101172.69;5091120;28;20006;-88
2023/04/16 00:36:42;;;;;;;;;;;;;;;16.53;68.95;101172.75;5091326;28;19914;-87
2023/04/16 00:39:07;;;;;;;;;;;;;;;16.54;68.84;101168.38;5090924;28;19912;-88
2023/04/16 00:41:33;;;;;;;;;;;;;;;16.52;69.05;101170.06;5075582;28;20381;-88
2023/04/16 00:43:59;;;;;;;;;;;;;;;16.53;68.90;101169.19;5094979;28;19961;-87
2023/04/16 00:46:25;;;;;;;;;;;;;;;16.49;69.14;101165.56;5093901;28;19994;-88
2023/04/16 00:48:51;;;;;;;;;;;;;;;16.51;69.02;101170.88;5095135;28;20444;-87
2023/04/16 00:51:17;;;;;;;;;;;;;;;16.49;69.27;101162.94;5095343;28;20033;-88
2023/04/16 00:53:42;;;;;;;;;;;;;;;16.51;69.02;101158.63;5076492;28;19912;-88
2023/04/16 00:56:07;;;;;;;;;;;;;;;16.51;68.96;101165.59;5076940;28;19923;-88
2023/04/16 00:58:33;;;;;;;;;;;;;;;16.47;69.32;101165.50;5093934;28;19986;-88
2023/04/16 01:00:59;;;;;;;;;;;;;;;16.47;69.18;101165.50;5093911;28;19915;-88
2023/04/16 01:03:34;;;;;;;;;;;;;;;16.49;69.15;101169.09;5076656;28;19920;-87
2023/04/16 01:05:59;;;;;;;;;;;;;;;16.47;69.28;101161.97;5093646;28;19911;-87
2023/04/16 01:08:25;;;;;;;;;;;;;;;16.47;69.27;101160.25;5062042;28;19912;-88
2023/04/16 01:10:50;;;;;;;;;;;;;;;16.46;69.11;101161.06;5094933;28;19908;-88
2023/04/16 01:13:16;;;;;;;;;;;;;;;16.46;69.09;101155.78;5094963;28;20372;-88
2023/04/16 01:15:41;;;;;;;;;;;;;;;16.48;69.10;101153.22;5094967;28;20362;-88
2023/04/16 01:18:16;;;;;;;;;;;;;;;16.44;69.29;101154.84;5094852;28;19915;-88
2023/04/16 01:20:42;;;;;;;;;;;;;;;16.45;69.23;101153.13;5093833;28;19954;-89
2023/04/16 01:23:07;;;;;;;;;;;;;;;16.45;69.46;101156.66;5093204;28;19963;-88
2023/04/16 01:25:33;;;;;;;;;;;;;;;16.44;69.32;101156.59;5093674;28;19951;-89
2023/04/16 01:27:58;;;;;;;;;;;;;;;16.45;69.48;101155.75;5063208;28;19908;-89
2023/04/16 01:30:24;;;;;;;;;;;;;;;16.43;69.48;101154.81;5094286;28;19974;-86
2023/04/16 01:32:49;;;;;;;;;;;;;;;16.43;69.47;101154.81;5093222;28;20381;-88
2023/04/16 01:35:16;;;;;;;;;;;;;;;16.43;69.47;101152.16;5094364;28;20006;-88
2023/04/16 01:37:42;;;;;;;;;;;;;;;16.40;69.68;101150.31;5093113;28;20381;-89
2023/04/16 01:40:08;;;;;;;;;;;;;;;16.42;69.41;101145.09;5093035;28;19912;-88
2023/04/16 01:42:33;;;;;;;;;;;;;;;16.42;69.55;101145.09;5094503;28;20019;-89
2023/04/16 01:44:58;;;;;;;;;;;;;;;16.41;69.51;101146.84;5075845;28;20399;-88
2023/04/16 01:47:24;;;;;;;;;;;;;;;16.40;69.56;101138.84;5076099;28;20393;-88
2023/04/16 01:49:49;;;;;;;;;;;;;;;16.40;69.78;101144.13;5094131;28;20309;-88
2023/04/16 01:52:15;;;;;;;;;;;;;;;16.40;69.53;101133.59;5075768;28;20336;-88
2023/04/16 01:54:40;;;;;;;;;;;;;;;16.38;69.49;101133.56;5076003;28;19926;-87
2023/04/16 01:57:06;;;;;;;;;;;;;;;16.40;69.46;101137.16;5093985;28;20381;-88
2023/04/16 01:59:31;;;;;;;;;;;;;;;16.39;69.34;101140.59;5075584;28;19912;-89
2023/04/16 02:02:01;;;;;;;;;;;;;;;16.40;69.45;101131.88;5088689;28;20374;-87
2023/04/16 02:04:32;;;;;;;;;;;;;;;16.42;69.41;101131.91;5090566;28;19943;-88
2023/04/16 02:06:57;;;;;;;;;;;;;;;16.39;69.50;101126.53;5097333;28;19896;-86
2023/04/16 02:09:23;;;;;;;;;;;;;;;16.38;69.47;101125.66;5110817;28;19938;-86
2023/04/16 02:11:48;;;;;;;;;;;;;;;16.38;69.47;101128.28;5100045;28;20441;-87
2023/04/16 02:14:14;;;;;;;;;;;;;;;16.36;69.65;101126.41;5092898;28;20312;-87
2023/04/16 02:16:39;;;;;;;;;;;;;;;16.38;69.51;101125.66;5075327;28;19923;-87
2023/04/16 02:19:05;;;;;;;;;;;;;;;16.39;69.77;101121.28;5093099;28;20309;-88
2023/04/16 02:21:30;;;;;;;;;;;;;;;16.37;69.76;101108.03;5093139;28;19915;-88
2023/04/16 02:23:56;;;;;;;;;;;;;;;16.38;69.59;101111.53;5093444;28;19916;-88
2023/04/16 02:26:22;;;;;;;;;;;;;;;16.35;69.75;101108.81;5093176;28;19908;-87
2023/04/16 02:28:48;;;;;;;;;;;;;;;16.36;69.73;101102.69;5075074;28;19922;-88
2023/04/16 02:31:16;;;;;;;;;;;;;;;16.32;69.69;101112.25;5092197;28;20381;-88
2023/04/16 02:33:42;;;;;;;;;;;;;;;16.36;69.71;101100.06;5092933;28;20470;-88
2023/04/16 02:36:10;;;;;;;;;;;;;;;16.35;69.81;101111.47;5093664;28;19908;-88
2023/04/16 02:38:36;;;;;;;;;;;;;;;16.36;69.82;101103.59;5091069;28;19908;-87
2023/04/16 02:41:01;;;;;;;;;;;;;;;16.33;69.62;101095.56;5091262;28;20339;-88
2023/04/16 02:43:27;;;;;;;;;;;;;;;16.34;69.53;101096.47;5091845;28;19937;-88
2023/04/16 02:45:52;;;;;;;;;;;;;;;16.35;69.73;101095.63;5070887;28;19963;-88
2023/04/16 02:48:18;;;;;;;;;;;;;;;16.35;69.62;101095.63;5073642;28;20369;-88
2023/04/16 02:50:43;;;;;;;;;;;;;;;16.33;69.67;101098.22;5088629;28;20361;-88
2023/04/16 02:53:09;;;;;;;;;;;;;;;16.33;69.69;101095.56;5088320;28;19923;-88
2023/04/16 02:55:35;;;;;;;;;;;;;;;16.33;69.48;101095.56;5071372;28;19908;-87
2023/04/16 02:58:00;;;;;;;;;;;;;;;16.32;69.69;101100.78;5072802;28;19995;-88
2023/04/16 03:00:25;;;;;;;;;;;;;;;16.34;69.65;101101.72;5071047;28;19919;-88
2023/04/16 03:02:51;;;;;;;;;;;;;;;16.33;69.76;101097.31;5070867;28;20336;-88
2023/04/16 03:05:16;;;;;;;;;;;;;;;16.33;69.86;101106.13;5071911;28;20377;-88
2023/04/16 03:07:42;;;;;;;;;;;;;;;16.30;69.74;101108.66;5072425;28;19914;-87
2023/04/16 03:10:08;;;;;;;;;;;;;;;16.31;69.66;101110.44;5072405;28;20340;-88
2023/04/16 03:12:33;;;;;;;;;;;;;;;16.29;69.84;101110.38;5071987;28;19912;-88
2023/04/16 03:14:59;;;;;;;;;;;;;;;16.28;69.80;101105.06;5059481;28;19912;-88
2023/04/16 03:17:25;;;;;;;;;;;;;;;16.31;69.89;101106.91;5072099;28;20389;-88
2023/04/16 03:19:50;;;;;;;;;;;;;;;16.29;69.88;101107.72;5072043;28;20015;-88
2023/04/16 03:22:16;;;;;;;;;;;;;;;16.30;69.76;101111.28;5072243;28;19923;-88
2023/04/16 03:24:41;;;;;;;;;;;;;;;16.28;70.03;101118.25;5087676;28;20404;-88
2023/04/16 03:27:07;;;;;;;;;;;;;;;16.32;69.95;101119.22;5087714;28;19915;-88
2023/04/16 03:29:32;;;;;;;;;;;;;;;16.31;69.80;101117.44;5071850;28;19909;-88
2023/04/16 03:31:57;;;;;;;;;;;;;;;16.29;69.83;101110.38;5075134;28;19930;-88
2023/04/16 03:34:23;;;;;;;;;;;;;;;16.28;70.01;101115.63;5070932;28;19923;-89
2023/04/16 03:36:48;;;;;;;;;;;;;;;16.27;69.94;101116.44;5071977;28;20502;-88
2023/04/16 03:39:14;;;;;;;;;;;;;;;16.28;70.01;101126.16;5070577;28;19915;-89
2023/04/16 03:41:39;;;;;;;;;;;;;;;16.27;70.20;101122.59;5087490;28;19965;-89
2023/04/16 03:44:05;;;;;;;;;;;;;;;16.25;70.28;101128.66;5071327;28;19923;-87
2023/04/16 03:46:30;;;;;;;;;;;;;;;16.22;70.33;101126.81;5064314;28;20388;-87
2023/04/16 03:48:55;;;;;;;;;;;;;;;16.26;70.36;101117.28;5069360;28;19931;-88
2023/04/16 03:51:21;;;;;;;;;;;;;;;16.27;70.31;101114.69;5073154;28;20384;-87
2023/04/16 03:53:46;;;;;;;;;;;;;;;16.25;70.25;101115.47;5091471;28;20397;-87
2023/04/16 03:56:12;;;;;;;;;;;;;;;16.24;70.39;101121.59;5091866;28;20373;-87
2023/04/16 03:58:37;;;;;;;;;;;;;;;16.23;70.15;101119.78;5091625;28;20383;-87
2023/04/16 04:01:02;;;;;;;;;;;;;;;16.27;70.11;101121.72;5091651;28;20392;-89
2023/04/16 04:03:28;;;;;;;;;;;;;;;16.23;70.46;101125.06;5073282;28;20323;-89
2023/04/16 04:05:54;;;;;;;;;;;;;;;16.23;70.20;101133.91;5091824;28;20369;-89
2023/04/16 04:08:19;;;;;;;;;;;;;;;16.25;69.89;101142.72;5056778;28;19922;-89
2023/04/16 04:10:45;;;;;;;;;;;;;;;16.23;70.07;101130.34;5073695;28;19919;-89
2023/04/16 04:13:10;;;;;;;;;;;;;;;16.25;70.00;101136.56;5091365;28;19912;-88
2023/04/16 04:15:36;;;;;;;;;;;;;;;16.25;69.96;101137.44;5073375;28;20452;-88
2023/04/16 04:18:02;;;;;;;;;;;;;;;16.21;70.39;101132.03;5089929;28;20401;-88
2023/04/16 04:20:27;;;;;;;;;;;;;;;16.22;70.30;101140.00;5091534;28;19961;-88
2023/04/16 04:22:53;;;;;;;;;;;;;;;16.26;70.38;101141.00;5091277;28;19907;-88
2023/04/16 04:25:18;;;;;;;;;;;;;;;16.22;70.48;101132.09;5073277;28;20511;-87
2023/04/16 04:27:44;;;;;;;;;;;;;;;16.21;70.38;101124.13;5091335;28;20379;-88
2023/04/16 04:30:10;;;;;;;;;;;;;;;16.20;70.58;101130.25;5080704;28;19916;-90
2023/04/16 04:32:36;;;;;;;;;;;;;;;16.19;70.57;101132.00;5081810;28;19916;-88
2023/04/16 04:35:02;;;;;;;;;;;;;;;16.19;70.54;101137.25;5087505;28;20003;-87
2023/04/16 04:37:27;;;;;;;;;;;;;;;16.21;70.55;101142.56;5092103;28;20373;-88
2023/04/16 04:39:52;;;;;;;;;;;;;;;16.21;70.55;101138.22;5078491;28;20002;-88
2023/04/16 04:42:18;;;;;;;;;;;;;;;16.18;70.86;101139.81;5076802;28;19912;-88
2023/04/16 04:44:44;;;;;;;;;;;;;;;16.18;70.75;101138.06;5061620;28;20478;-88
2023/04/16 04:47:10;;;;;;;;;;;;;;;16.20;70.84;101138.16;5068430;28;20006;-88
2023/04/16 04:49:35;;;;;;;;;;;;;;;16.15;70.83;101131.78;5068054;28;20047;-88
2023/04/16 04:52:01;;;;;;;;;;;;;;;16.19;70.69;101138.97;5066419;28;20455;-88
2023/04/16 04:54:30;;;;;;;;;;;;;;;16.18;70.81;101134.56;5064565;28;20340;-88
2023/04/16 04:56:55;;;;;;;;;;;;;;;16.19;70.80;101133.69;5068571;28;19912;-89
2023/04/16 04:59:21;;;;;;;;;;;;;;;16.18;70.98;101130.16;5056994;28;19938;-88
2023/04/16 05:01:46;;;;;;;;;;;;;;;16.16;70.89;101136.25;5061293;28;19916;-88
2023/04/16 05:04:12;;;;;;;;;;;;;;;16.17;70.97;101135.38;5042976;28;19912;-89
2023/04/16 05:06:37;;;;;;;;;;;;;;;16.15;70.77;101131.78;5077570;28;19982;-89
2023/04/16 05:09:03;;;;;;;;;;;;;;;16.16;70.82;101130.97;5077194;28;19912;-88
2023/04/16 05:11:28;;;;;;;;;;;;;;;16.17;70.92;101127.47;5069181;28;20389;-89
2023/04/16 05:13:56;;;;;;;;;;;;;;;16.18;71.12;101130.16;5063667;28;19970;-90
2023/04/16 05:16:21;;;;;;;;;;;;;;;16.17;71.28;101135.38;5053910;28;19986;-89
2023/04/16 05:18:46;;;;;;;;;;;;;;;16.13;71.81;101133.47;5068519;28;19971;-89
2023/04/16 05:21:12;;;;;;;;;;;;;;;16.13;71.71;101131.75;5057441;28;20433;-89
2023/04/16 05:23:37;;;;;;;;;;;;;;;16.14;71.55;101135.28;5068793;28;19998;-87
2023/04/16 05:26:03;;;;;;;;;;;;;;;16.16;71.58;101129.22;5065965;28;20297;-89
2023/04/16 05:28:29;;;;;;;;;;;;;;;16.16;71.45;101131.84;5045856;28;20412;-90
2023/04/16 05:30:54;;;;;;;;;;;;;;;16.18;71.48;101135.44;5074256;28;20406;-90
2023/04/16 05:33:21;;;;;;;;;;;;;;;16.17;71.40;101132.75;5058102;28;19916;-89
2023/04/16 05:35:46;;;;;;;;;;;;;;;16.15;71.35;101132.72;5069993;28;19970;-90
2023/04/16 05:38:12;;;;;;;;;;;;;;;16.17;71.43;101138.00;5056936;28;20440;-89
2023/04/16 05:40:39;;;;;;;;;;;;;;;16.18;71.89;101134.56;5051632;28;19991;-86
2023/04/16 05:43:04;;;;;;;;;;;;;;;16.19;71.65;101132.00;5054371;28;19912;-89
2023/04/16 05:45:32;;;;;;;;;;;;;;;16.18;71.88;101135.44;5067518;28;20677;-88
2023/04/16 05:47:58;;;;;;;;;;;;;;;16.16;71.81;101134.50;5076215;28;19958;-89
2023/04/16 05:50:24;;;;;;;;;;;;;;;16.15;71.90;101134.41;5060924;28;19912;-89
2023/04/16 05:52:51;;;;;;;;;;;;;;;16.15;71.74;101132.72;5068063;28;20420;-88
2023/04/16 05:55:16;;;;;;;;;;;;;;;16.19;72.00;101132.00;5057835;28;20018;-87
2023/04/16 05:57:42;;;;;;;;;;;;;;;16.20;71.99;101143.41;5092047;28;19944;-90
2023/04/16 06:00:07;;;;;;;;;;;;;;;16.19;71.88;101142.53;5081126;28;19946;-89
2023/04/16 06:02:33;;;;;;;;;;;;;;;16.16;71.71;101130.97;5077932;28;20597;-88
2023/04/16 06:05:00;;;;;;;;;;;;;;;16.15;72.00;101137.97;5064890;28;20369;-90
2023/04/16 06:07:25;;;;;;;;;;;;;;;16.13;71.69;101123.84;5071467;28;19916;-86
2023/04/16 06:09:51;;;;;;;;;;;;;;;16.16;71.59;101118.69;5059380;28;19912;-87
2023/04/16 06:12:16;;;;;;;;;;;;;;;16.15;71.56;101122.16;5095142;28;20366;-88
2023/04/16 06:14:42;;;;;;;;;;;;;;;16.16;71.49;101125.69;5078183;28;20449;-86
2023/04/16 06:17:07;;;;;;;;;;;;;;;16.17;71.50;101116.94;5070123;28;20589;-85
2023/04/16 06:19:33;;;;;;;;;;;;;;;16.13;71.50;101121.22;5074627;28;20335;-86
2023/04/16 06:21:58;;;;;;;;;;;;;;;16.12;71.12;101129.06;5058067;28;20399;-85
2023/04/16 06:24:24;;;;;;;;;;;;;;;16.11;71.04;101128.16;5074305;28;19943;-86
2023/04/16 06:26:53;;;;;;;;;;;;;;;16.12;71.36;101124.69;5078156;28;19939;-86
2023/04/16 06:29:19;;;;;;;;;;;;;;;16.10;71.25;101122.84;5075680;28;19927;-86
2023/04/16 06:31:44;;;;;;;;;;;;;;;16.09;71.51;101121.94;5058231;28;20238;-89
2023/04/16 06:34:10;;;;;;;;;;;;;;;16.08;71.56;101122.75;5056943;28;20325;-87
2023/04/16 06:36:36;;;;;;;;;;;;;;;16.14;71.63;101124.75;5071909;28;19988;-88
2023/04/16 06:39:02;;;;;;;;;;;;;;;16.11;71.48;101127.25;5087172;28;19908;-88
2023/04/16 06:41:28;;;;;;;;;;;;;;;16.07;71.60;101120.97;5067121;28;19915;-88
2023/04/16 06:43:54;;;;;;;;;;;;;;;16.10;71.62;101118.44;5086972;28;20033;-89
2023/04/16 06:46:20;;;;;;;;;;;;;;;16.09;71.65;101116.66;5070539;28;20022;-89
2023/04/16 06:48:46;;;;;;;;;;;;;;;16.14;71.42;101114.19;5053093;28;20011;-87
2023/04/16 06:51:12;;;;;;;;;;;;;;;16.14;71.72;101108.94;5079581;28;19999;-88
2023/04/16 06:53:37;;;;;;;;;;;;;;;16.09;72.31;101106.13;5054705;28;19927;-87
2023/04/16 06:56:03;;;;;;;;;;;;;;;16.16;71.89;101115.16;5072909;28;19912;-88
2023/04/16 06:58:28;;;;;;;;;;;;;;;16.13;72.19;101117.66;5094576;28;19911;-88
2023/04/16 07:00:54;;;;;;;;;;;;;;;16.13;72.20;101112.38;5084232;28;19912;-87
2023/04/16 07:03:19;;;;;;;;;;;;;;;16.12;72.15;101111.50;5092969;28;19912;-88
2023/04/16 07:05:45;;;;;;;;;;;;;;;16.11;72.28;101111.44;5070540;28;19916;-86
2023/04/16 07:08:14;;;;;;;;;;;;;;;16.08;72.58;101107.84;5074292;28;20128;-88
2023/04/16 07:10:39;;;;;;;;;;;;;;;16.14;72.26;101119.47;5072460;28;19912;-89
2023/04/16 07:13:05;;;;;;;;;;;;;;;16.15;72.21;101114.28;5077492;28;19919;-89
2023/04/16 07:15:32;;;;;;;;;;;;;;;16.18;71.80;101110.84;5073599;28;19916;-90
2023/04/16 07:17:58;;;;;;;;;;;;;;;16.21;72.27;101118.84;5056990;28;19916;-90
2023/04/16 07:20:28;;;;;;;;;;;;;;;16.16;71.91;101113.41;5062302;28;19977;-90
2023/04/16 07:22:54;;;;;;;;;;;;;;;16.16;71.09;101121.31;5071343;28;19934;-93
2023/04/16 07:25:21;;;;;;;;;;;;;;;16.15;70.55;101122.16;5064692;28;19916;-90
2023/04/16 07:27:49;;;;;;;;;;;;;;;16.14;70.16;101124.75;5071544;28;19988;-89
2023/04/16 07:30:18;;;;;;;;;;;;;;;16.17;69.98;101122.19;5070116;28;20480;-89
2023/04/16 07:32:43;;;;;;;;;;;;;;;16.17;70.20;101122.19;5052069;28;20563;-88
2023/04/16 07:35:09;;;;;;;;;;;;;;;16.21;70.13;101114.50;5066619;28;20605;-90
2023/04/16 07:37:35;;;;;;;;;;;;;;;16.18;69.76;101109.09;5058196;28;19916;-89
2023/04/16 07:40:00;;;;;;;;;;;;;;;16.20;69.81;101111.78;5054074;28;19912;-89
2023/04/16 07:42:27;;;;;;;;;;;;;;;16.22;69.87;101113.63;5095162;28;19922;-89
2023/04/16 07:44:53;;;;;;;;;;;;;;;16.21;70.13;101103.97;5069211;28;20341;-90
2023/04/16 07:47:27;;;;;;;;;;;;;;;16.24;69.94;101097.91;5065158;28;19912;-90
2023/04/16 07:49:52;;;;;;;;;;;;;;;16.24;69.74;101101.41;5085165;28;19920;-90
2023/04/16 07:52:23;;;;;;;;;;;;;;;16.26;69.66;101105.00;5071194;28;20009;-91
2023/04/16 07:54:50;;;;;;;;;;;;;;;16.25;69.85;101104.94;5067400;28;19966;-92
2023/04/16 07:57:20;;;;;;;;;;;;;;;16.26;69.79;101106.75;5068358;28;20382;-91
2023/04/16 07:59:45;;;;;;;;;;;;;;;16.27;70.00;101111.16;5073486;28;19978;-92
2023/04/16 08:02:12;;;;;;;;;;;;;;;16.26;69.54;101104.13;5067815;28;19916;-89
2023/04/16 08:04:43;;;;;;;;;;;;;;;16.28;70.99;101095.41;5052465;28;19916;-91
2023/04/16 08:07:16;;;;;;;;;;;;;;;16.27;69.76;101090.09;5084855;28;19912;-92
2023/04/16 08:09:48;;;;;;;;;;;;;;;16.27;69.76;101090.09;5075688;28;19986;-90
2023/04/16 08:12:19;;;;;;;;;;;;;;;16.27;69.83;101090.09;5061642;28;19912;-90
2023/04/16 08:14:45;;;;;;;;;;;;;;;16.29;69.77;101093.66;5064006;28;19924;-94
2023/04/16 08:17:11;;;;;;;;;;;;;;;16.28;69.71;101094.53;5069669;28;20616;-91
2023/04/16 08:19:38;;;;;;;;;;;;;;;16.30;69.76;101090.22;5066894;28;19962;-92
2023/04/16 08:22:18;;;;;;;;;;;;;;;16.29;69.70;101091.03;5064516;28;19916;-94
2023/04/16 08:24:55;;;;;;;;;;;;;;;16.30;69.91;101090.22;5054814;28;20007;-93
2023/04/16 08:27:21;;;;;;;;;;;;;;;16.29;69.40;101088.41;5074255;28;19966;-93
2023/04/16 08:29:47;;;;;;;;;;;;;;;16.33;69.66;101092.06;5068707;28;19912;-92
2023/04/16 08:32:12;;;;;;;;;;;;;;;16.33;69.47;101084.16;5059160;28;20337;-92
2023/04/16 08:34:38;;;;;;;;;;;;;;;16.33;69.75;101082.41;5069202;28;20374;-91
2023/04/16 08:37:05;;;;;;;;;;;;;;;16.31;69.94;101081.44;5072233;28;19920;-93
2023/04/16 08:39:31;;;;;;;;;;;;;;;16.31;69.71;101092.00;5070517;28;19916;-93
2023/04/16 08:41:56;;;;;;;;;;;;;;;16.32;69.65;101092.88;5086407;28;19935;-92
2023/04/16 08:44:31;;;;;;;;;;;;;;;16.33;69.61;101090.31;5066648;28;20306;-91
2023/04/16 08:46:58;;;;;;;;;;;;;;;16.31;69.48;101092.00;5068611;28;20058;-90
2023/04/16 08:49:27;;;;;;;;;;;;;;;16.32;69.44;101085.88;5070279;28;19912;-93
2023/04/16 08:51:54;;;;;;;;;;;;;;;16.36;69.61;101087.78;5066715;28;20301;-91
2023/04/16 08:54:19;;;;;;;;;;;;;;;16.35;69.71;101082.47;5065293;28;20306;-90
2023/04/16 08:56:52;;;;;;;;;;;;;;;16.38;69.87;101082.56;5064417;28;20146;-91
2023/04/16 08:59:18;;;;;;;;;;;;;;;16.37;69.95;101081.66;5070735;28;19956;-90
2023/04/16 09:01:48;;;;;;;;;;;;;;;16.40;69.89;101087.06;5072140;28;19966;-89
2023/04/16 09:04:13;;;;;;;;;;;;;;;16.36;69.72;101090.44;5059552;28;19919;-92
2023/04/16 09:06:40;;;;;;;;;;;;;;;16.40;69.75;101089.69;5068065;28;19912;-89
2023/04/16 09:09:10;;;;;;;;;;;;;;;16.40;69.85;101087.06;5090996;28;19931;-90
2023/04/16 09:11:38;;;;;;;;;;;;;;;16.46;69.48;101089.00;5072967;28;19935;-90
2023/04/16 09:14:04;;;;;;;;;;;;;;;16.44;69.49;101083.66;5086630;28;19916;-90
2023/04/16 09:16:32;;;;;;;;;;;;;;;16.40;69.53;101078.25;5071884;28;19912;-91
2023/04/16 09:18:57;;;;;;;;;;;;;;;16.41;69.44;101082.69;5069434;28;19927;-90
2023/04/16 09:21:22;;;;;;;;;;;;;;;16.39;69.49;101085.25;5064636;28;19919;-91
2023/04/16 09:23:48;;;;;;;;;;;;;;;16.43;69.49;101083.63;5075136;28;19918;-90
2023/04/16 09:26:16;;;;;;;;;;;;;;;16.46;69.47;101089.88;5069850;28;19916;-94
2023/04/16 09:28:43;;;;;;;;;;;;;;;16.57;69.48;101094.66;5072055;28;20310;-89
2023/04/16 09:31:12;;;;;;;;;;;;;;;16.42;69.98;101084.47;5073451;28;19952;-88
2023/04/16 09:33:37;;;;;;;;;;;;;;;16.44;69.05;101082.78;5074134;28;19927;-88
2023/04/16 09:36:03;;;;;;;;;;;;;;;16.49;67.90;101086.50;5075301;28;19912;-89
2023/04/16 09:38:47;;;;;;;;;;;;;;;16.64;66.45;101089.66;5068114;28;20374;-90
2023/04/16 09:41:15;;;;;;;;;;;;;;;16.89;64.25;101075.59;5064639;28;19921;-90
2023/04/16 09:43:48;;;;;;;;;;;;;;;16.95;63.49;101076.63;5054912;28;20003;-89
2023/04/16 09:46:13;;;;;;;;;;;;;;;16.93;63.02;101073.91;5058942;28;20462;-89
2023/04/16 09:48:39;;;;;;;;;;;;;;;16.91;62.88;101070.34;5085750;28;19912;-89
2023/04/16 09:51:05;;;;;;;;;;;;;;;17.04;62.46;101069.91;5083164;28;20458;-90
2023/04/16 09:53:30;;;;;;;;;;;;;;;16.93;62.41;101065.13;5091436;28;19969;-89
2023/04/16 09:55:56;;;;;;;;;;;;;;;17.11;61.85;101060.44;5092914;28;19966;-89
2023/04/16 09:58:23;;;;;;;;;;;;;;;17.17;61.36;101054.47;5080806;28;19916;-89
2023/04/16 10:00:49;;;;;;;;;;;;;;;17.20;61.17;101060.72;5091617;28;19912;-88
2023/04/16 10:03:14;;;;;;;;;;;;;;;17.15;61.28;101064.97;5073712;28;19919;-89
2023/04/16 10:05:40;;;;;;;;;;;;;;;17.16;61.16;101063.22;5072816;28;19911;-89
2023/04/16 10:08:12;;;;;;;;;;;;;;;17.11;61.13;101065.72;5057116;28;20017;-89
2023/04/16 10:10:37;;;;;;;;;;;;;;;17.00;62.90;101064.50;5065973;28;20413;-89
2023/04/16 10:13:03;;;;;;;;;;;;;;;16.74;65.33;101071.50;5088297;28;19915;-89
2023/04/16 10:15:28;;;;;;;;;;;;;;;16.64;66.46;101073.81;5093651;28;20399;-88
2023/04/16 10:17:54;;;;;;;;;;;;;;;16.69;66.92;101082.78;5069546;28;20495;-89
2023/04/16 10:20:19;;;;;;;;;;;;;;;16.90;65.36;101065.91;5077307;28;19948;-88
2023/04/16 10:22:45;;;;;;;;;;;;;;;17.08;63.71;101068.25;5091395;28;19916;-88
2023/04/16 10:25:10;;;;;;;;;;;;;;;17.08;62.65;101070.88;5083222;28;19916;-88
2023/04/16 10:27:36;;;;;;;;;;;;;;;17.17;62.02;101065.03;5086429;28;20376;-88
2023/04/16 10:30:03;;;;;;;;;;;;;;;17.21;61.58;101056.38;5086488;28;20218;-86
2023/04/16 10:32:30;;;;;;;;;;;;;;;17.25;61.11;101051.22;5092971;28;19912;-87
2023/04/16 10:34:56;;;;;;;;;;;;;;;17.29;60.93;101053.13;5076920;28;19924;-87
2023/04/16 10:37:30;;;;;;;;;;;;;;;17.17;60.94;101054.47;5077537;28;19912;-87
2023/04/16 10:39:55;;;;;;;;;;;;;;;17.32;60.48;101054.94;5091062;28;19924;-88
2023/04/16 10:42:20;;;;;;;;;;;;;;;17.27;60.58;101053.91;5076095;28;19968;-87
2023/04/16 10:44:46;;;;;;;;;;;;;;;17.31;60.27;101058.41;5089273;28;20052;-88
2023/04/16 10:47:12;;;;;;;;;;;;;;;17.44;60.00;101060.63;5086383;28;19920;-89
2023/04/16 10:49:37;;;;;;;;;;;;;;;17.37;60.04;101060.38;5077597;28;19923;-88
2023/04/16 10:52:10;;;;;;;;;;;;;;;17.34;59.92;101060.28;5076798;28;19998;-88
2023/04/16 10:54:36;;;;;;;;;;;;;;;17.37;59.84;101060.38;5084996;28;19916;-88
2023/04/16 10:57:03;;;;;;;;;;;;;;;17.45;59.58;101072.06;5092894;28;20309;-87
2023/04/16 10:59:32;;;;;;;;;;;;;;;17.41;60.26;101075.47;5086191;28;19916;-87
2023/04/16 11:01:58;;;;;;;;;;;;;;;17.25;62.36;101080.25;5069995;28;20400;-87
2023/04/16 11:04:36;;;;;;;;;;;;;;;16.95;64.49;101085.41;5087403;28;19919;-88
2023/04/16 11:07:38;;;;;;;;;;;;;;;16.89;65.58;101098.44;5074781;28;19918;-88
2023/04/16 11:10:11;;;;;;;;;;;;;;;16.98;64.79;101101.38;5088228;28;19920;-88
2023/04/16 11:12:37;;;;;;;;;;;;;;;17.25;62.43;101095.19;5068602;28;19944;-87
2023/04/16 11:15:08;;;;;;;;;;;;;;;17.41;61.08;101094.81;5076897;28;20016;-87
2023/04/16 11:18:00;;;;;;;;;;;;;;;17.41;60.88;101081.63;5056436;28;20385;-87
2023/04/16 11:21:00;;;;;;;;;;;;;;;17.41;60.40;101065.78;5086692;28;19956;-89
2023/04/16 11:23:36;;;;;;;;;;;;;;;17.56;59.66;101067.09;5076611;28;19986;-88
2023/04/16 11:26:21;;;;;;;;;;;;;;;17.46;59.62;101066.84;5068424;28;19912;-87
2023/04/16 11:28:59;;;;;;;;;;;;;;;17.62;59.49;101072.59;5056080;28;19964;-88
2023/04/16 11:31:36;;;;;;;;;;;;;;;17.63;59.56;101100.75;5095232;28;19912;-87
2023/04/16 11:34:12;;;;;;;;;;;;;;;17.61;59.41;101102.47;5068526;28;19999;-87
2023/04/16 11:36:42;;;;;;;;;;;;;;;17.58;59.33;101111.19;5083893;28;19915;-86
2023/04/16 11:39:09;;;;;;;;;;;;;;;17.61;59.18;101097.19;5067960;28;19911;-87
2023/04/16 11:41:41;;;;;;;;;;;;;;;17.57;59.08;101096.22;5071310;28;19911;-88
2023/04/16 11:44:22;;;;;;;;;;;;;;;17.58;59.16;101097.09;5069950;28;20392;-88
2023/04/16 11:46:48;;;;;;;;;;;;;;;17.55;59.23;101087.34;5070867;28;19924;-88
2023/04/16 11:49:16;;;;;;;;;;;;;;;17.54;59.60;101082.00;5071130;28;19912;-94
2023/04/16 11:51:52;;;;;;;;;;;;;;;17.46;61.17;101074.75;5074090;28;19968;-90
2023/04/16 11:54:19;;;;;;;;;;;;;;;17.20;63.35;101075.69;5089387;28;19916;-89
2023/04/16 11:56:46;;;;;;;;;;;;;;;16.99;64.83;101076.75;5072993;28;19912;-90
2023/04/16 11:59:15;;;;;;;;;;;;;;;17.11;64.48;101083.31;5068520;28;19920;-89
2023/04/16 12:01:57;;;;;;;;;;;;;;;17.40;62.13;101074.56;5091959;28;19980;-87
2023/04/16 12:04:46;;;;;;;;;;;;;;;17.52;60.82;101065.22;5085854;28;19995;-90
2023/04/16 12:07:33;;;;;;;;;;;;;;;17.45;60.42;101080.88;5089917;28;19947;-88
2023/04/16 12:10:38;;;;;;;;;;;;;;;17.52;59.70;101104.84;5082028;28;19922;-89
2023/04/16 12:20:02;;;;;;;;;;;;;;;17.50;59.13;101103.06;5090459;28;19958;-88
2023/04/16 12:22:48;;;;;;;;;;;;;;;17.63;58.61;101095.47;5074580;28;19926;-91
2023/04/16 12:28:38;;;;;;;;;;;;;;;17.62;58.28;101069.94;5085835;28;20420;-90
2023/04/16 12:34:06;;;;;;;;;;;;;;;17.54;58.40;101035.38;5089925;28;20011;-88
2023/04/16 12:36:31;;;;;;;;;;;;;;;17.58;58.20;101029.31;5072335;28;19995;-89
2023/04/16 12:38:57;;;;;;;;;;;;;;;17.56;58.76;101014.28;5075603;28;20440;-90
2023/04/16 12:41:22;;;;;;;;;;;;;;;17.29;60.92;101002.03;5078847;28;19920;-89
2023/04/16 12:43:48;;;;;;;;;;;;;;;17.22;62.33;100992.16;5082173;28;19922;-85
2023/04/16 12:46:13;;;;;;;;;;;;;;;17.26;62.91;100967.66;5073249;28;20246;-89
2023/04/16 12:48:39;;;;;;;;;;;;;;;17.21;63.57;100959.59;5101722;28;20434;-89